Time;durP1;ratioP1;P1;durP2;ratioP2;P2;SDS_P1;SDS_P2;PMS_P1;PMS_P2;Temp;Humidity;BMP_temperature;BMP_pressure;BME280_temperature;BME280_humidity;BME280_pressure;Samples;Min_cycle;Max_cycle;Signal;HPM_P1;HPM_P2
2021/12/28 00:02:19;;;;;;;15.68;10.23;;;7.20;84.80;;;;;;10738128;33;20038;-70
2021/12/28 00:09:17;;;;;;;13.02;9.50;;;7.20;84.90;;;;;;10750758;33;20055;-70
2021/12/28 00:15:33;;;;;;;15.13;9.98;;;7.20;84.90;;;;;;10749636;33;20374;-70
2021/12/28 00:21:35;;;;;;;15.32;10.75;;;7.10;84.80;;;;;;10752481;33;20051;-70
2021/12/28 00:27:37;;;;;;;15.63;10.15;;;7.10;84.90;;;;;;10752130;33;20040;-70
2021/12/28 00:33:45;;;;;;;12.13;9.80;;;7.10;84.90;;;;;;10752099;33;20338;-70
2021/12/28 00:39:47;;;;;;;12.40;11.10;;;7.00;84.90;;;;;;10751855;33;20410;-70
2021/12/28 00:45:49;;;;;;;16.00;12.18;;;7.00;84.90;;;;;;10751482;33;20048;-70
2021/12/28 00:51:52;;;;;;;16.95;12.37;;;7.00;84.90;;;;;;10737559;33;20021;-70
2021/12/28 00:57:54;;;;;;;13.02;10.88;;;6.90;85.00;;;;;;10755916;33;20016;-70
2021/12/28 01:03:56;;;;;;;23.15;17.58;;;6.90;85.00;;;;;;10755945;33;20382;-70
2021/12/28 01:09:58;;;;;;;31.85;24.48;;;6.80;85.00;;;;;;10755807;33;20325;-73
2021/12/28 01:16:01;;;;;;;19.55;14.10;;;6.80;85.00;;;;;;10755475;33;20381;-72
2021/12/28 01:22:03;;;;;;;27.83;22.30;;;6.70;85.00;;;;;;10755244;33;20052;-73
2021/12/28 01:28:06;;;;;;;21.23;14.75;;;6.80;85.10;;;;;;10755129;33;20337;-72
2021/12/28 01:34:09;;;;;;;22.15;18.08;;;6.70;85.00;;;;;;10754953;33;20025;-72
2021/12/28 01:40:16;;;;;;;18.48;14.95;;;6.70;85.00;;;;;;10742081;33;20025;-72
2021/12/28 01:46:17;;;;;;;16.45;13.10;;;6.80;85.00;;;;;;10385436;27;12389759;-72
2021/12/28 01:52:21;;;;;;;17.60;14.20;;;6.90;85.00;;;;;;10746301;33;20029;-73
2021/12/28 01:58:23;;;;;;;13.20;11.18;;;6.80;85.00;;;;;;10738915;33;20360;-72
2021/12/28 02:04:28;;;;;;;18.45;13.55;;;6.90;85.00;;;;;;10751270;33;20058;-72
2021/12/28 02:10:31;;;;;;;22.15;17.23;;;6.90;84.90;;;;;;10793519;33;20050;-73
2021/12/28 02:16:40;;;;;;;28.40;22.17;;;6.90;84.90;;;;;;10827135;33;20047;-72
2021/12/28 02:22:42;;;;;;;22.27;18.10;;;6.90;85.00;;;;;;10827027;33;20023;-72
2021/12/28 02:28:44;;;;;;;20.05;17.50;;;6.90;85.00;;;;;;10826778;33;20023;-72
2021/12/28 02:34:46;;;;;;;26.73;20.60;;;6.90;85.10;;;;;;10826614;33;20027;-73
2021/12/28 02:40:49;;;;;;;32.38;25.20;;;6.80;85.20;;;;;;10826456;33;20027;-73
2021/12/28 02:46:51;;;;;;;25.48;21.15;;;6.80;85.60;;;;;;10826089;33;20032;-72
2021/12/28 02:52:54;;;;;;;30.90;23.77;;;6.80;85.50;;;;;;10823947;33;20031;-73
2021/12/28 02:58:56;;;;;;;32.95;26.23;;;6.80;85.50;;;;;;10825852;33;20054;-73
2021/12/28 03:04:58;;;;;;;27.75;21.15;;;6.80;85.50;;;;;;10825655;33;20032;-72
2021/12/28 03:11:01;;;;;;;23.48;18.92;;;6.80;85.50;;;;;;10825585;33;20028;-73
2021/12/28 03:17:05;;;;;;;30.98;20.85;;;6.90;85.50;;;;;;10825027;32;20085;-73
2021/12/28 03:23:07;;;;;;;21.17;17.85;;;6.90;85.40;;;;;;10825279;33;20036;-72
2021/12/28 03:29:09;;;;;;;22.13;14.95;;;6.90;85.40;;;;;;10825101;33;20312;-73
2021/12/28 03:35:14;;;;;;;14.87;11.35;;;6.90;85.40;;;;;;10825081;33;20343;-72
2021/12/28 03:41:18;;;;;;;20.52;15.15;;;6.90;85.40;;;;;;10824795;32;20024;-72
2021/12/28 03:47:20;;;;;;;18.30;14.15;;;7.00;85.30;;;;;;10824575;33;20391;-72
2021/12/28 03:53:23;;;;;;;16.50;11.95;;;7.00;85.30;;;;;;10824542;33;20415;-72
2021/12/28 03:59:25;;;;;;;13.27;8.63;;;6.90;85.40;;;;;;10824371;33;20338;-72
2021/12/28 04:05:28;;;;;;;23.25;16.48;;;7.00;85.40;;;;;;10824223;33;20035;-72
2021/12/28 04:11:30;;;;;;;15.13;10.55;;;7.00;85.30;;;;;;10821055;33;20434;-72
2021/12/28 04:17:36;;;;;;;13.40;9.02;;;7.00;85.40;;;;;;10819737;33;20059;-72
2021/12/28 04:23:39;;;;;;;11.65;9.77;;;7.00;85.30;;;;;;10811982;33;20046;-73
2021/12/28 04:29:41;;;;;;;7.57;5.43;;;7.00;85.40;;;;;;10823339;32;20426;-73
2021/12/28 04:35:43;;;;;;;10.45;6.62;;;7.00;85.30;;;;;;10827968;33;20058;-73
2021/12/28 04:41:45;;;;;;;11.85;9.18;;;6.90;85.30;;;;;;10829981;32;20051;-72
2021/12/28 04:47:48;;;;;;;15.60;11.20;;;7.00;85.30;;;;;;10829591;33;20055;-73
2021/12/28 04:53:53;;;;;;;12.13;8.20;;;7.00;85.30;;;;;;10829567;33;20312;-73
2021/12/28 04:59:55;;;;;;;15.35;10.85;;;7.00;85.30;;;;;;10829232;33;20031;-73
2021/12/28 05:05:57;;;;;;;19.85;12.85;;;7.00;85.20;;;;;;10829221;33;20051;-73
2021/12/28 05:11:59;;;;;;;11.35;7.60;;;6.90;85.30;;;;;;10828937;33;20314;-73
2021/12/28 05:18:02;;;;;;;13.45;10.20;;;7.00;85.40;;;;;;10827571;33;20031;-73
2021/12/28 05:24:05;;;;;;;18.77;11.52;;;7.00;85.40;;;;;;10828828;33;20055;-73
2021/12/28 05:30:08;;;;;;;13.35;9.48;;;7.00;85.30;;;;;;10826668;33;20032;-73
2021/12/28 05:36:11;;;;;;;14.70;9.15;;;6.90;85.30;;;;;;10828499;33;20028;-73
2021/12/28 05:42:13;;;;;;;9.13;6.80;;;6.90;85.30;;;;;;10827005;32;20050;-73
2021/12/28 05:48:37;;;;;;;10.15;7.25;;;6.90;85.30;;;;;;10827789;33;20043;-73
2021/12/28 05:54:39;;;;;;;13.95;9.48;;;6.90;85.30;;;;;;10827658;33;20024;-73
2021/12/28 06:00:41;;;;;;;14.40;11.82;;;6.90;85.30;;;;;;10827615;33;20051;-73
2021/12/28 06:06:48;;;;;;;17.95;14.65;;;6.90;85.30;;;;;;10827381;33;20086;-72
2021/12/28 06:12:50;;;;;;;14.90;10.63;;;6.90;85.40;;;;;;10824246;33;20031;-72
2021/12/28 06:18:52;;;;;;;11.98;7.82;;;6.90;85.40;;;;;;10827049;33;20024;-72
2021/12/28 06:24:54;;;;;;;12.93;9.38;;;6.80;85.40;;;;;;10827001;33;20086;-73
2021/12/28 06:30:56;;;;;;;14.32;11.05;;;6.90;85.50;;;;;;10826730;33;20066;-72
2021/12/28 06:36:58;;;;;;;17.20;10.82;;;6.90;85.50;;;;;;10809572;33;20368;-72
2021/12/28 06:43:00;;;;;;;11.02;8.13;;;6.90;85.50;;;;;;10826346;33;20306;-72
2021/12/28 06:49:03;;;;;;;18.02;11.38;;;6.90;85.50;;;;;;10827410;32;20051;-72
2021/12/28 06:55:06;;;;;;;19.15;13.30;;;6.90;85.50;;;;;;10825966;33;20089;-72
2021/12/28 07:01:08;;;;;;;13.27;8.73;;;6.80;85.50;;;;;;10825773;33;20078;-72
2021/12/28 07:07:11;;;;;;;16.05;12.80;;;6.80;85.60;;;;;;10823044;33;20028;-72
2021/12/28 07:13:13;;;;;;;17.58;12.98;;;6.80;85.60;;;;;;10825488;33;20023;-72
2021/12/28 07:19:26;;;;;;;12.73;10.00;;;6.70;85.50;;;;;;10824454;32;20023;-72
2021/12/28 07:25:29;;;;;;;15.43;10.75;;;6.80;85.50;;;;;;10825872;33;20035;-72
2021/12/28 07:31:32;;;;;;;12.10;8.85;;;6.80;85.50;;;;;;10822499;33;20047;-72
2021/12/28 07:37:36;;;;;;;12.55;9.18;;;6.90;85.50;;;;;;10824794;33;20090;-72
2021/12/28 07:43:38;;;;;;;15.10;9.68;;;6.90;85.40;;;;;;10824525;33;20380;-72
2021/12/28 07:49:40;;;;;;;11.93;8.95;;;7.00;85.30;;;;;;10824440;33;20388;-72
2021/12/28 07:55:42;;;;;;;14.45;11.07;;;7.00;85.40;;;;;;10824496;33;20423;-72
2021/12/28 08:01:44;;;;;;;20.65;14.30;;;7.10;85.30;;;;;;10826027;32;20082;-70
2021/12/28 08:07:46;;;;;;;23.02;16.77;;;7.20;85.20;;;;;;10826734;33;20054;-70
2021/12/28 08:14:12;;;;;;;18.37;13.88;;;7.20;85.20;;;;;;10830400;33;20028;-70
2021/12/28 08:20:24;;;;;;;27.48;21.05;;;7.20;85.30;;;;;;10830515;33;20089;-70
2021/12/28 08:26:26;;;;;;;25.85;20.50;;;7.20;85.30;;;;;;10828013;33;20027;-70
2021/12/28 08:32:29;;;;;;;36.72;28.83;;;7.20;85.40;;;;;;10830071;33;20408;-70
2021/12/28 08:38:31;;;;;;;53.40;37.15;;;7.30;85.40;;;;;;10829936;33;20046;-70
2021/12/28 08:44:34;;;;;;;38.75;29.90;;;7.30;85.50;;;;;;10828426;33;20028;-70
2021/12/28 08:50:40;;;;;;;48.90;34.08;;;7.40;85.70;;;;;;10826281;33;20032;-70
2021/12/28 08:56:42;;;;;;;37.28;27.42;;;7.40;85.80;;;;;;10829419;33;20073;-70
2021/12/28 09:02:44;;;;;;;39.70;29.73;;;7.40;85.80;;;;;;10825508;33;20392;-70
2021/12/28 09:09:15;;;;;;;36.40;29.20;;;7.50;85.90;;;;;;10828533;33;20020;-70
2021/12/28 09:15:18;;;;;;;41.25;31.62;;;7.60;85.90;;;;;;10814066;32;20028;-70
2021/12/28 09:21:40;;;;;;;34.00;24.23;;;7.60;85.90;;;;;;10828234;33;20261;-70
2021/12/28 09:28:14;;;;;;;36.50;26.20;;;7.60;85.90;;;;;;10828289;33;20039;-70
2021/12/28 09:34:17;;;;;;;38.33;24.10;;;7.70;85.90;;;;;;10825733;33;20028;-70
2021/12/28 09:40:19;;;;;;;31.05;21.05;;;7.80;85.80;;;;;;10827647;33;20329;-70
2021/12/28 09:46:21;;;;;;;41.53;30.58;;;7.90;85.80;;;;;;10815114;27;20050;-70
2021/12/28 09:52:23;;;;;;;42.62;29.55;;;8.00;85.70;;;;;;10826075;33;20020;-70
2021/12/28 09:58:26;;;;;;;56.35;35.33;;;7.90;85.80;;;;;;10825286;33;20016;-70
2021/12/28 10:04:28;;;;;;;47.90;36.50;;;8.00;85.90;;;;;;10826904;33;20046;-73
2021/12/28 10:10:38;;;;;;;49.33;39.08;;;7.90;85.90;;;;;;10825206;33;20027;-69
2021/12/28 10:17:08;;;;;;;41.37;29.95;;;7.90;86.00;;;;;;10825750;33;20020;-70
2021/12/28 10:23:19;;;;;;;38.10;27.77;;;8.00;86.10;;;;;;10824044;33;20059;-70
2021/12/28 10:30:05;;;;;;;43.60;28.30;;;8.10;86.10;;;;;;10825043;33;20062;-69
2021/12/28 10:36:15;;;;;;;28.77;21.50;;;8.20;86.10;;;;;;10675906;33;20052;-70
2021/12/28 10:42:53;;;;;;;41.72;27.48;;;8.20;85.90;;;;;;10676039;33;20060;-70
2021/12/28 10:48:59;;;;;;;34.72;25.35;;;8.40;85.80;;;;;;10676000;33;20104;-70
2021/12/28 10:55:37;;;;;;;41.78;30.55;;;8.60;85.60;;;;;;10676502;33;20125;-70
2021/12/28 11:01:42;;;;;;;50.60;36.95;;;8.60;85.60;;;;;;10790492;32;20024;-70
2021/12/28 11:07:57;;;;;;;58.63;40.75;;;8.70;85.60;;;;;;10789765;32;20361;-70
2021/12/28 11:14:35;;;;;;;49.88;39.05;;;8.60;85.70;;;;;;10901135;32;20039;-70
2021/12/28 11:20:37;;;;;;;50.22;38.05;;;8.60;85.90;;;;;;10901366;32;20165;-70
2021/12/28 11:26:42;;;;;;;54.50;37.42;;;8.70;86.00;;;;;;10900854;32;20065;-70
2021/12/28 11:32:44;;;;;;;54.92;39.83;;;8.70;86.00;;;;;;10896440;32;20086;-70
2021/12/28 11:38:47;;;;;;;44.92;32.80;;;8.70;86.00;;;;;;10820458;33;20028;-70
2021/12/28 11:44:51;;;;;;;40.75;29.52;;;8.70;86.10;;;;;;10824594;33;20050;-70
2021/12/28 11:50:54;;;;;;;46.13;30.80;;;8.70;86.00;;;;;;10823797;33;20035;-70
2021/12/28 11:57:00;;;;;;;39.80;26.95;;;8.80;86.00;;;;;;10823734;33;20047;-70
2021/12/28 12:03:03;;;;;;;45.33;30.62;;;8.80;85.90;;;;;;10824417;33;20051;-70
2021/12/28 12:09:06;;;;;;;40.67;32.42;;;8.80;85.80;;;;;;10822054;33;20058;-70
2021/12/28 12:15:11;;;;;;;46.40;38.00;;;8.80;85.70;;;;;;10824095;33;20050;-70
2021/12/28 12:21:18;;;;;;;45.17;35.28;;;8.90;85.70;;;;;;10823923;33;20047;-70
2021/12/28 12:27:59;;;;;;;41.90;28.25;;;8.90;85.60;;;;;;10823740;33;20055;-70
2021/12/28 12:34:04;;;;;;;49.97;34.53;;;9.00;85.50;;;;;;10823432;33;20055;-70
2021/12/28 12:40:07;;;;;;;48.87;32.58;;;9.00;85.50;;;;;;10823380;33;20046;-70
2021/12/28 12:46:30;;;;;;;48.75;32.15;;;9.00;85.50;;;;;;10823151;33;20042;-70
2021/12/28 12:52:32;;;;;;;46.55;31.98;;;9.10;85.40;;;;;;10828692;33;20054;-70
2021/12/28 12:58:40;;;;;;;46.35;29.45;;;9.10;85.30;;;;;;10829243;33;20028;-70
2021/12/28 13:04:45;;;;;;;43.30;31.45;;;9.10;85.40;;;;;;10829216;33;20336;-70
2021/12/28 13:10:50;;;;;;;35.08;23.80;;;9.20;85.30;;;;;;10828960;33;20347;-70
2021/12/28 13:17:14;;;;;;;48.53;29.37;;;9.20;85.30;;;;;;10825254;33;20031;-70
2021/12/28 13:23:20;;;;;;;36.55;25.77;;;9.30;85.10;;;;;;10827810;33;20024;-70
2021/12/28 13:29:28;;;;;;;34.72;22.17;;;9.40;85.10;;;;;;10826944;33;20398;-70
2021/12/28 13:35:32;;;;;;;33.03;22.00;;;9.50;85.00;;;;;;10827710;33;20032;-70
2021/12/28 13:42:01;;;;;;;43.50;28.45;;;9.40;84.90;;;;;;10816473;33;20046;-70
2021/12/28 13:48:17;;;;;;;31.85;20.62;;;9.30;85.00;;;;;;10826874;33;20027;-70
2021/12/28 13:54:23;;;;;;;29.23;20.48;;;9.30;85.00;;;;;;10827065;33;20023;-70
2021/12/28 14:00:30;;;;;;;;;;;9.20;85.00;;;;;;10827247;32;20028;-73
2021/12/28 14:06:35;;;;;;;38.10;24.67;;;9.20;85.10;;;;;;10815435;33;19923;-73
2021/12/28 14:12:37;;;;;;;32.35;18.30;;;9.20;85.10;;;;;;10790076;33;20020;-73
2021/12/28 14:18:50;;;;;;;31.27;20.73;;;9.20;85.10;;;;;;10791590;33;20054;-72
2021/12/28 14:24:55;;;;;;;24.50;17.17;;;9.20;85.20;;;;;;10789947;33;20020;-73
2021/12/28 14:31:18;;;;;;;37.85;21.45;;;9.20;85.20;;;;;;10822283;33;20447;-73
2021/12/28 14:37:21;;;;;;;30.02;17.45;;;9.20;85.10;;;;;;10826670;33;20039;-73
2021/12/28 14:43:29;;;;;;;34.63;22.87;;;9.20;85.20;;;;;;10826272;33;20054;-73
2021/12/28 14:49:33;;;;;;;30.20;21.50;;;9.20;85.20;;;;;;10825963;33;20012;-73
2021/12/28 14:56:23;;;;;;;40.92;28.45;;;9.20;85.20;;;;;;10826265;33;20563;-73
2021/12/28 15:03:02;;;;;;;39.97;26.70;;;9.20;85.20;;;;;;10641069;33;20052;-73
2021/12/28 15:09:04;;;;;;;55.95;35.78;;;9.10;85.20;;;;;;10637619;33;20037;-73
2021/12/28 15:15:08;;;;;;;44.42;29.02;;;9.10;85.30;;;;;;10639608;33;20041;-70
2021/12/28 15:21:11;;;;;;;40.60;26.12;;;9.00;85.40;;;;;;10640641;33;20018;-70
2021/12/28 15:27:17;;;;;;;47.92;27.35;;;9.00;85.50;;;;;;10626870;33;20021;-70
2021/12/28 15:33:30;;;;;;;57.20;33.83;;;9.00;85.50;;;;;;10732613;32;20051;-70
2021/12/28 15:39:32;;;;;;;52.55;31.98;;;8.90;85.60;;;;;;10746931;32;20047;-70
2021/12/28 15:45:35;;;;;;;63.38;39.00;;;8.90;85.70;;;;;;10746152;33;20025;-70
2021/12/28 15:51:39;;;;;;;53.70;35.53;;;8.80;85.80;;;;;;10745625;32;20021;-70
2021/12/28 15:57:41;;;;;;;46.28;30.58;;;8.80;85.80;;;;;;10746153;33;20501;-70
2021/12/28 16:03:56;;;;;;;39.85;25.52;;;8.70;85.80;;;;;;10748614;32;20043;-70
2021/12/28 16:09:58;;;;;;;50.35;31.05;;;8.70;85.90;;;;;;10746860;33;20098;-70
2021/12/28 16:16:01;;;;;;;41.85;24.63;;;8.80;85.90;;;;;;10746861;32;20040;-70
2021/12/28 16:22:10;;;;;;;42.40;26.83;;;8.80;85.80;;;;;;10747496;33;20047;-70
2021/12/28 16:28:12;;;;;;;47.45;28.60;;;8.70;85.80;;;;;;10751081;33;20047;-70
2021/12/28 16:34:15;;;;;;;39.42;23.45;;;8.70;85.80;;;;;;10753002;33;20029;-70
2021/12/28 16:40:25;;;;;;;37.45;26.20;;;8.70;85.80;;;;;;10752704;32;20021;-70
2021/12/28 16:46:27;;;;;;;56.22;38.03;;;8.70;85.90;;;;;;10715720;33;20071;-70
2021/12/28 16:52:29;;;;;;;46.67;26.75;;;8.70;85.80;;;;;;10703639;33;20020;-70
2021/12/28 16:58:31;;;;;;;32.05;20.33;;;8.70;85.80;;;;;;10715838;33;20056;-70
2021/12/28 17:05:01;;;;;;;46.83;29.20;;;8.70;85.90;;;;;;10716364;33;20103;-70
2021/12/28 17:11:05;;;;;;;;;;;8.70;85.90;;;;;;10703494;33;20020;-70
2021/12/28 17:17:07;;;;;;;35.85;23.45;;;8.60;85.90;;;;;;10745942;32;19924;-70
2021/12/28 17:23:10;;;;;;;41.50;27.37;;;8.60;86.00;;;;;;10751245;33;20097;-70
2021/12/28 17:29:14;;;;;;;30.37;21.08;;;8.60;86.00;;;;;;10749322;32;20345;-70
2021/12/28 17:35:19;;;;;;;30.90;20.00;;;8.60;85.90;;;;;;10751417;33;20091;-73
2021/12/28 17:41:22;;;;;;;45.90;31.05;;;8.60;86.00;;;;;;10755662;27;20436;-72
2021/12/28 17:47:25;;;;;;;38.53;25.98;;;8.60;85.90;;;;;;10750927;33;20055;-72
2021/12/28 17:53:29;;;;;;;42.15;23.90;;;8.60;85.90;;;;;;10750494;33;20052;-73
2021/12/28 17:59:31;;;;;;;35.13;20.90;;;8.60;86.00;;;;;;10750348;33;20025;-72
2021/12/28 18:05:33;;;;;;;38.53;24.60;;;8.50;86.00;;;;;;10785021;33;20407;-73
2021/12/28 18:11:36;;;;;;;33.90;22.65;;;8.60;85.90;;;;;;10827504;33;20048;-73
2021/12/28 18:17:38;;;;;;;35.72;23.95;;;8.50;86.00;;;;;;10809329;33;20028;-73
2021/12/28 18:23:41;;;;;;;32.90;23.10;;;8.50;85.90;;;;;;10790411;33;20302;-73
2021/12/28 18:29:44;;;;;;;23.23;15.10;;;8.50;86.00;;;;;;10790253;33;20426;-73
2021/12/28 18:35:51;;;;;;;32.78;22.30;;;8.50;86.00;;;;;;10790152;33;20047;-73
2021/12/28 18:41:54;;;;;;;35.28;20.42;;;8.50;85.90;;;;;;10789469;33;20329;-73
2021/12/28 18:47:56;;;;;;;56.35;39.25;;;8.50;85.90;;;;;;10788714;33;20047;-73
2021/12/28 18:53:58;;;;;;;38.88;23.08;;;8.50;85.90;;;;;;10776263;33;20419;-72
2021/12/28 19:00:00;;;;;;;29.33;17.20;;;8.50;85.90;;;;;;10789265;33;20401;-73
2021/12/28 19:06:03;;;;;;;29.70;21.65;;;8.50;85.90;;;;;;10788916;33;20051;-72
2021/12/28 19:12:06;;;;;;;30.02;20.73;;;8.50;85.80;;;;;;10785827;33;20070;-73
2021/12/28 19:18:08;;;;;;;35.65;24.12;;;8.50;85.80;;;;;;10788555;33;20065;-73
2021/12/28 19:24:10;;;;;;;66.05;45.88;;;8.50;85.80;;;;;;10788359;33;20024;-73
2021/12/28 19:30:13;;;;;;;77.00;48.28;;;8.50;85.80;;;;;;10785469;33;20040;-73
2021/12/28 19:36:17;;;;;;;37.75;25.77;;;8.50;85.80;;;;;;10787889;33;20036;-72
2021/12/28 19:42:19;;;;;;;35.72;26.55;;;8.50;85.90;;;;;;10787690;33;20054;-73
2021/12/28 19:48:25;;;;;;;27.80;17.77;;;8.50;85.90;;;;;;10792247;33;20023;-72
2021/12/28 19:54:27;;;;;;;50.80;32.00;;;8.50;85.90;;;;;;10804112;33;20033;-72
2021/12/28 20:00:31;;;;;;;46.17;29.12;;;8.50;85.90;;;;;;10808500;33;20020;-72
2021/12/28 20:06:56;;;;;;;59.63;38.78;;;8.40;85.90;;;;;;10800772;33;20050;-73
2021/12/28 20:12:59;;;;;;;61.83;41.03;;;8.40;86.00;;;;;;10817286;33;20031;-72
2021/12/28 20:19:03;;;;;;;39.53;27.95;;;8.40;86.10;;;;;;10811436;33;20032;-73
2021/12/28 20:25:09;;;;;;;44.60;28.25;;;8.40;86.10;;;;;;10827999;33;20074;-70
2021/12/28 20:31:11;;;;;;;21.33;16.60;;;8.40;86.10;;;;;;10819511;33;20066;-73
2021/12/28 20:37:19;;;;;;;37.45;27.08;;;8.40;86.00;;;;;;10808742;33;20047;-73
2021/12/28 20:43:26;;;;;;;43.25;28.95;;;8.50;86.00;;;;;;10830573;33;20032;-73
2021/12/28 20:49:27;;;;;;;35.38;20.98;;;8.40;86.00;;;;;;10799506;33;20054;-73
2021/12/28 20:55:30;;;;;;;75.20;29.60;;;8.50;86.00;;;;;;10798569;33;20046;-73
2021/12/28 21:01:34;;;;;;;42.40;25.00;;;8.40;86.00;;;;;;10798433;33;20400;-73
2021/12/28 21:07:45;;;;;;;43.35;26.60;;;8.40;86.00;;;;;;10797487;33;20385;-73
2021/12/28 21:13:47;;;;;;;38.72;25.17;;;8.40;86.00;;;;;;10793067;33;20427;-73
2021/12/28 21:19:50;;;;;;;44.03;20.67;;;8.40;86.00;;;;;;10796374;33;20356;-73
2021/12/28 21:25:57;;;;;;;39.33;22.73;;;8.40;86.00;;;;;;10787928;33;20341;-73
2021/12/28 21:31:59;;;;;;;32.35;18.62;;;8.40;86.00;;;;;;10791375;33;20040;-73
2021/12/28 21:38:01;;;;;;;41.70;29.37;;;8.40;86.00;;;;;;10791277;33;20051;-73
2021/12/28 21:44:04;;;;;;;44.28;31.37;;;8.40;86.00;;;;;;10777786;33;20432;-73
2021/12/28 21:50:07;;;;;;;37.10;23.12;;;8.40;86.00;;;;;;10791134;33;20432;-73
2021/12/28 21:56:09;;;;;;;35.13;27.15;;;8.40;86.00;;;;;;10791127;33;20038;-73
2021/12/28 22:02:12;;;;;;;32.15;21.77;;;8.40;86.00;;;;;;10786619;33;20043;-73
2021/12/28 22:08:14;;;;;;;34.80;21.58;;;8.40;86.00;;;;;;10790764;33;20028;-73
2021/12/28 22:14:16;;;;;;;30.52;22.08;;;8.40;86.00;;;;;;10777216;32;20089;-73
2021/12/28 22:20:18;;;;;;;31.37;23.25;;;8.40;86.00;;;;;;10790293;33;20028;-73
2021/12/28 22:26:21;;;;;;;33.95;23.92;;;8.40;85.90;;;;;;10787797;33;20305;-73
2021/12/28 22:32:23;;;;;;;34.08;23.75;;;8.40;85.90;;;;;;10789983;33;20032;-73
2021/12/28 22:38:26;;;;;;;42.47;27.00;;;8.40;86.00;;;;;;10789879;33;20020;-73
2021/12/28 22:44:28;;;;;;;62.38;35.60;;;8.40;85.90;;;;;;10789552;33;20024;-72
2021/12/28 22:50:31;;;;;;;39.95;25.10;;;8.40;86.00;;;;;;10789583;33;20059;-72
2021/12/28 22:56:34;;;;;;;45.70;29.08;;;8.40;86.00;;;;;;10789421;33;20104;-72
2021/12/28 23:02:36;;;;;;;32.35;22.08;;;8.40;86.00;;;;;;10776010;33;20059;-73
2021/12/28 23:08:38;;;;;;;42.62;22.10;;;8.40;86.00;;;;;;10788948;33;20028;-70
2021/12/28 23:14:41;;;;;;;51.08;31.48;;;8.40;86.00;;;;;;10784570;33;20047;-70
2021/12/28 23:20:44;;;;;;;36.53;25.80;;;8.40;86.00;;;;;;10788423;33;20303;-70
2021/12/28 23:26:46;;;;;;;33.72;20.40;;;8.40;86.00;;;;;;10786825;33;20051;-70
2021/12/28 23:32:51;;;;;;;39.75;27.48;;;8.40;86.00;;;;;;10787606;33;20044;-70
2021/12/28 23:38:55;;;;;;;32.13;21.12;;;8.40;86.00;;;;;;10788352;33;20039;-70
2021/12/28 23:44:57;;;;;;;38.42;22.45;;;8.30;86.10;;;;;;10787948;33;20416;-70
2021/12/28 23:50:59;;;;;;;28.08;18.15;;;8.30;86.00;;;;;;10774757;33;20028;-70
2021/12/28 23:57:02;;;;;;;35.00;21.42;;;8.40;86.00;;;;;;10787684;33;20047;-70
